East Granville, Vermont
Current Conditions -  °F | °C
As of 2:51 PM on Monday 22 Dec 2014 (Local Time) from KMPV Reporting Station
Overcast Overcast  
Wind Chill: 31°   Ceiling: 3500
Heat Index: 31°   Visibility: 7mi
Dew Point: 25°   Wind: 0mph
Humidity: 79%   Direction: NA
Pressure: 30.31"   Gusts: NA
Location:  44.0701°N, 72.7276°W
Report Text: KMPV 221951Z AUTO 00000KT 7SM FEW017 OVC035 M01/M04 A3031 RMK AO2 SLP281 T10061039
Loading
Personal Weather Stations






























Interactive Weather Map New forecast layout! Learn more

10-Day Weather Forecast

Advertisements
Track Severe Weather on mobile